sensor_id;sensor_type;location;lat;lon;timestamp;pressure;altitude;pressure_sealevel;temperature;humidity
43818;BME280;29868;47.360;18.984;2023-08-08T00:01:10;62926.88;;;14.09;100.00
43818;BME280;29868;47.360;18.984;2023-08-08T00:03:35;62928.56;;;14.11;100.00
43818;BME280;29868;47.360;18.984;2023-08-08T00:06:01;62928.34;;;14.08;100.00
43818;BME280;29868;47.360;18.984;2023-08-08T00:08:26;62931.34;;;14.14;100.00
43818;BME280;29868;47.360;18.984;2023-08-08T00:10:52;62931.34;;;14.14;100.00
43818;BME280;29868;47.360;18.984;2023-08-08T00:13:17;62930.22;;;14.12;100.00
43818;BME280;29868;47.360;18.984;2023-08-08T00:15:43;62926.66;;;14.07;100.00
43818;BME280;29868;47.360;18.984;2023-08-08T00:18:08;62926.88;;;14.09;100.00
43818;BME280;29868;47.360;18.984;2023-08-08T00:20:34;62921.81;;;14.05;100.00
43818;BME280;29868;47.360;18.984;2023-08-08T00:22:59;62920.38;;;14.06;100.00
43818;BME280;29868;47.360;18.984;2023-08-08T00:25:24;62927.44;;;14.10;100.00
43818;BME280;29868;47.360;18.984;2023-08-08T00:27:50;62924.41;;;14.05;100.00
43818;BME280;29868;47.360;18.984;2023-08-08T00:30:15;62916.44;;;14.02;100.00
43818;BME280;29868;47.360;18.984;2023-08-08T00:32:41;62922.97;;;14.06;100.00
43818;BME280;29868;47.360;18.984;2023-08-08T00:35:06;62932.25;;;14.12;100.00
43818;BME280;29868;47.360;18.984;2023-08-08T00:37:32;62932.25;;;14.12;100.00
43818;BME280;29868;47.360;18.984;2023-08-08T00:39:58;62934.50;;;14.14;100.00
43818;BME280;29868;47.360;18.984;2023-08-08T00:42:23;62935.97;;;14.13;100.00
43818;BME280;29868;47.360;18.984;2023-08-08T00:44:48;62940.09;;;14.19;100.00
43818;BME280;29868;47.360;18.984;2023-08-08T00:47:14;62928.34;;;14.08;100.00
43818;BME280;29868;47.360;18.984;2023-08-08T00:49:39;62932.81;;;14.12;100.00
43818;BME280;29868;47.360;18.984;2023-08-08T00:52:06;62940.47;;;14.17;100.00
43818;BME280;29868;47.360;18.984;2023-08-08T00:54:31;62935.06;;;14.15;100.00
43818;BME280;29868;47.360;18.984;2023-08-08T00:56:57;62944.03;;;14.23;100.00
43818;BME280;29868;47.360;18.984;2023-08-08T00:59:23;62938.44;;;14.18;100.00
43818;BME280;29868;47.360;18.984;2023-08-08T01:01:48;62940.31;;;14.22;100.00
43818;BME280;29868;47.360;18.984;2023-08-08T01:04:15;62942.34;;;14.21;100.00
43818;BME280;29868;47.360;18.984;2023-08-08T01:06:53;62929.34;;;14.14;100.00
43818;BME280;29868;47.360;18.984;2023-08-08T01:09:48;62938.06;;;14.20;100.00
43818;BME280;29868;47.360;18.984;2023-08-08T01:12:18;62940.88;;;14.22;100.00
43818;BME280;29868;47.360;18.984;2023-08-08T01:14:44;62946.28;;;14.25;100.00
43818;BME280;29868;47.360;18.984;2023-08-08T01:17:10;62942.00;;;14.23;100.00
43818;BME280;29868;47.360;18.984;2023-08-08T01:19:37;62937.88;;;14.17;100.00
43818;BME280;29868;47.360;18.984;2023-08-08T01:22:06;62942.91;;;14.22;100.00
43818;BME280;29868;47.360;18.984;2023-08-08T01:24:34;62947.16;;;14.23;100.00
43818;BME280;29868;47.360;18.984;2023-08-08T01:27:03;62926.31;;;14.09;100.00
43818;BME280;29868;47.360;18.984;2023-08-08T01:29:29;62918.59;;;13.97;100.00
43818;BME280;29868;47.360;18.984;2023-08-08T01:31:55;62914.88;;;13.96;100.00
43818;BME280;29868;47.360;18.984;2023-08-08T01:34:20;62902.44;;;13.90;100.00
43818;BME280;29868;47.360;18.984;2023-08-08T01:36:54;62894.16;;;13.77;100.00
43818;BME280;29868;47.360;18.984;2023-08-08T01:39:25;62894.94;;;13.80;100.00
43818;BME280;29868;47.360;18.984;2023-08-08T01:41:52;62894.72;;;13.78;100.00
43818;BME280;29868;47.360;18.984;2023-08-08T01:44:19;62897.53;;;13.80;100.00
43818;BME280;29868;47.360;18.984;2023-08-08T01:46:47;62898.66;;;13.81;100.00
43818;BME280;29868;47.360;18.984;2023-08-08T01:49:12;62890.47;;;13.76;100.00
43818;BME280;29868;47.360;18.984;2023-08-08T01:51:38;62894.72;;;13.78;100.00
43818;BME280;29868;47.360;18.984;2023-08-08T01:54:03;62891.94;;;13.75;100.00
43818;BME280;29868;47.360;18.984;2023-08-08T01:56:29;62888.56;;;13.72;100.00
43818;BME280;29868;47.360;18.984;2023-08-08T01:58:54;62867.63;;;13.51;100.00
43818;BME280;29868;47.360;18.984;2023-08-08T02:01:20;62854.28;;;13.46;100.00
43818;BME280;29868;47.360;18.984;2023-08-08T02:03:45;62845.44;;;13.33;100.00
43818;BME280;29868;47.360;18.984;2023-08-08T02:06:11;62846.78;;;13.36;100.00
43818;BME280;29868;47.360;18.984;2023-08-08T02:08:36;62841.19;;;13.31;100.00
43818;BME280;29868;47.360;18.984;2023-08-08T02:11:01;62850.84;;;13.35;100.00
43818;BME280;29868;47.360;18.984;2023-08-08T02:13:27;62843.78;;;13.31;100.00
43818;BME280;29868;47.360;18.984;2023-08-08T02:15:52;62809.25;;;13.02;100.00
43818;BME280;29868;47.360;18.984;2023-08-08T02:18:18;62800.31;;;12.94;100.00
43818;BME280;29868;47.360;18.984;2023-08-08T02:20:43;62819.13;;;13.09;100.00
43818;BME280;29868;47.360;18.984;2023-08-08T02:23:09;62826.25;;;13.20;100.00
43818;BME280;29868;47.360;18.984;2023-08-08T02:25:34;62837.03;;;13.25;100.00
43818;BME280;29868;47.360;18.984;2023-08-08T02:27:59;62835.78;;;13.29;100.00
43818;BME280;29868;47.360;18.984;2023-08-08T02:30:25;62844.75;;;13.37;100.00
43818;BME280;29868;47.360;18.984;2023-08-08T02:32:50;62841.19;;;13.31;100.00
43818;BME280;29868;47.360;18.984;2023-08-08T02:35:16;62850.50;;;13.37;100.00
43818;BME280;29868;47.360;18.984;2023-08-08T02:37:41;62855.41;;;13.47;100.00
43818;BME280;29868;47.360;18.984;2023-08-08T02:40:07;62853.72;;;13.45;100.00
43818;BME280;29868;47.360;18.984;2023-08-08T02:42:33;62858.31;;;13.45;100.00
43818;BME280;29868;47.360;18.984;2023-08-08T02:44:58;62843.06;;;13.35;100.00
43818;BME280;29868;47.360;18.984;2023-08-08T02:47:24;62847.91;;;13.37;100.00
43818;BME280;29868;47.360;18.984;2023-08-08T02:49:50;62841.75;;;13.32;100.00
43818;BME280;29868;47.360;18.984;2023-08-08T02:52:15;62829.66;;;13.23;100.00
43818;BME280;29868;47.360;18.984;2023-08-08T02:54:41;62829.66;;;13.23;100.00
43818;BME280;29868;47.360;18.984;2023-08-08T02:57:06;62832.22;;;13.23;100.00
43818;BME280;29868;47.360;18.984;2023-08-08T02:59:32;62826.41;;;13.15;100.00
43818;BME280;29868;47.360;18.984;2023-08-08T03:01:57;62824.72;;;13.14;100.00
43818;BME280;29868;47.360;18.984;2023-08-08T03:04:22;62809.06;;;13.00;100.00
43818;BME280;29868;47.360;18.984;2023-08-08T03:06:48;62806.66;;;13.02;100.00
43818;BME280;29868;47.360;18.984;2023-08-08T03:09:13;62805.91;;;12.99;100.00
43818;BME280;29868;47.360;18.984;2023-08-08T03:11:39;62810.38;;;13.03;100.00
43818;BME280;29868;47.360;18.984;2023-08-08T03:14:07;62816.88;;;13.07;100.00
43818;BME280;29868;47.360;18.984;2023-08-08T03:16:34;62818.56;;;13.08;100.00
43818;BME280;29868;47.360;18.984;2023-08-08T03:18:59;62818.56;;;13.08;100.00
43818;BME280;29868;47.360;18.984;2023-08-08T03:21:24;62822.47;;;13.12;100.00
43818;BME280;29868;47.360;18.984;2023-08-08T03:23:50;62824.72;;;13.14;100.00
43818;BME280;29868;47.360;18.984;2023-08-08T03:26:15;62816.19;;;13.11;100.00
43818;BME280;29868;47.360;18.984;2023-08-08T03:28:41;62821.56;;;13.13;100.00
43818;BME280;29868;47.360;18.984;2023-08-08T03:31:06;62820.47;;;13.12;100.00
43818;BME280;29868;47.360;18.984;2023-08-08T03:33:32;62815.19;;;13.05;100.00
43818;BME280;29868;47.360;18.984;2023-08-08T03:35:58;62806.47;;;13.00;100.00
43818;BME280;29868;47.360;18.984;2023-08-08T03:38:23;62810.38;;;13.03;100.00
43818;BME280;29868;47.360;18.984;2023-08-08T03:40:48;62817.66;;;13.10;100.00
43818;BME280;29868;47.360;18.984;2023-08-08T03:43:14;62818.44;;;13.13;100.00
43818;BME280;29868;47.360;18.984;2023-08-08T03:45:39;62822.13;;;13.14;100.00
43818;BME280;29868;47.360;18.984;2023-08-08T03:48:05;62828.84;;;13.20;100.00
43818;BME280;29868;47.360;18.984;2023-08-08T03:50:30;62833.69;;;13.22;100.00
43818;BME280;29868;47.360;18.984;2023-08-08T03:52:56;62829.66;;;13.23;100.00
43818;BME280;29868;47.360;18.984;2023-08-08T03:55:21;62836.16;;;13.27;100.00
43818;BME280;29868;47.360;18.984;2023-08-08T03:57:46;62833.00;;;13.26;100.00
43818;BME280;29868;47.360;18.984;2023-08-08T04:00:12;62844.56;;;13.34;100.00
43818;BME280;29868;47.360;18.984;2023-08-08T04:02:37;62854.97;;;13.42;100.00
43818;BME280;29868;47.360;18.984;2023-08-08T04:05:03;62851.63;;;13.38;100.00
43818;BME280;29868;47.360;18.984;2023-08-08T04:07:30;62852.72;;;13.39;100.00
43818;BME280;29868;47.360;18.984;2023-08-08T04:09:55;62857.44;;;13.46;100.00
43818;BME280;29868;47.360;18.984;2023-08-08T04:12:20;62868.63;;;13.56;100.00
43818;BME280;29868;47.360;18.984;2023-08-08T04:14:46;62880.38;;;13.67;100.00
43818;BME280;29868;47.360;18.984;2023-08-08T04:17:11;62946.28;;;14.25;100.00
43818;BME280;29868;47.360;18.984;2023-08-08T04:19:38;63196.28;;;16.50;100.00
43818;BME280;29868;47.360;18.984;2023-08-08T04:22:03;63367.19;;;18.05;100.00
43818;BME280;29868;47.360;18.984;2023-08-08T04:24:29;63491.22;;;19.20;100.00
43818;BME280;29868;47.360;18.984;2023-08-08T04:26:54;63569.31;;;19.88;100.00
43818;BME280;29868;47.360;18.984;2023-08-08T04:29:20;63705.56;;;21.09;100.00
43818;BME280;29868;47.360;18.984;2023-08-08T04:31:45;63777.84;;;21.75;100.00
43818;BME280;29868;47.360;18.984;2023-08-08T04:34:10;63863.09;;;22.52;93.63
43818;BME280;29868;47.360;18.984;2023-08-08T04:36:36;63915.50;;;23.04;84.74
43818;BME280;29868;47.360;18.984;2023-08-08T04:39:01;63983.88;;;23.66;80.12
43818;BME280;29868;47.360;18.984;2023-08-08T04:41:27;64028.38;;;24.03;76.79
43818;BME280;29868;47.360;18.984;2023-08-08T04:43:52;64104.56;;;24.70;69.75
43818;BME280;29868;47.360;18.984;2023-08-08T04:46:18;64142.53;;;25.04;65.12
43818;BME280;29868;47.360;18.984;2023-08-08T04:48:43;64189.53;;;25.46;60.76
43818;BME280;29868;47.360;18.984;2023-08-08T04:51:09;64200.09;;;25.61;59.32
43818;BME280;29868;47.360;18.984;2023-08-08T04:53:34;64265.81;;;26.13;56.48
43818;BME280;29868;47.360;18.984;2023-08-08T04:55:59;64277.38;;;26.26;54.25
43818;BME280;29868;47.360;18.984;2023-08-08T04:58:25;64350.50;;;26.91;52.03
43818;BME280;29868;47.360;18.984;2023-08-08T05:00:50;64304.41;;;26.55;52.69
43818;BME280;29868;47.360;18.984;2023-08-08T05:03:17;64391.38;;;27.28;49.59
43818;BME280;29868;47.360;18.984;2023-08-08T05:05:42;64455.69;;;27.88;47.90
43818;BME280;29868;47.360;18.984;2023-08-08T05:08:10;64540.09;;;28.62;45.60
43818;BME280;29868;47.360;18.984;2023-08-08T05:10:36;64571.91;;;28.91;44.54
43818;BME280;29868;47.360;18.984;2023-08-08T05:13:01;64616.22;;;29.30;43.76
43818;BME280;29868;47.360;18.984;2023-08-08T05:15:26;64605.25;;;29.18;42.31
43818;BME280;29868;47.360;18.984;2023-08-08T05:17:52;64635.56;;;29.48;41.61
43818;BME280;29868;47.360;18.984;2023-08-08T05:20:19;64604.13;;;29.17;40.71
43818;BME280;29868;47.360;18.984;2023-08-08T05:22:44;64660.59;;;29.70;40.87
43818;BME280;29868;47.360;18.984;2023-08-08T05:25:10;64671.56;;;29.75;40.75
43818;BME280;29868;47.360;18.984;2023-08-08T05:27:35;64722.97;;;30.24;39.55
43818;BME280;29868;47.360;18.984;2023-08-08T05:30:01;64750.06;;;30.46;38.26
43818;BME280;29868;47.360;18.984;2023-08-08T05:32:26;64747.22;;;30.43;39.33
43818;BME280;29868;47.360;18.984;2023-08-08T05:34:52;64710.59;;;30.15;38.37
43818;BME280;29868;47.360;18.984;2023-08-08T05:37:17;64736.78;;;30.39;38.13
43818;BME280;29868;47.360;18.984;2023-08-08T05:39:44;64727.13;;;30.30;37.08
43818;BME280;29868;47.360;18.984;2023-08-08T05:42:09;64682.19;;;29.90;37.62
43818;BME280;29868;47.360;18.984;2023-08-08T05:44:35;64656.41;;;29.64;37.48
43818;BME280;29868;47.360;18.984;2023-08-08T05:47:00;64667.41;;;29.76;38.64
43818;BME280;29868;47.360;18.984;2023-08-08T05:49:26;64667.59;;;29.72;37.76
43818;BME280;29868;47.360;18.984;2023-08-08T05:51:51;64604.84;;;29.20;38.44
43818;BME280;29868;47.360;18.984;2023-08-08T05:54:16;64637.25;;;29.49;37.95
43818;BME280;29868;47.360;18.984;2023-08-08T05:56:42;64590.66;;;29.07;38.32
43818;BME280;29868;47.360;18.984;2023-08-08T05:59:07;64672.50;;;29.81;38.30
43818;BME280;29868;47.360;18.984;2023-08-08T06:01:33;64747.41;;;30.46;36.32
43818;BME280;29868;47.360;18.984;2023-08-08T06:04:00;64679.34;;;29.87;36.58
43818;BME280;29868;47.360;18.984;2023-08-08T06:06:26;64592.34;;;29.09;38.62
43818;BME280;29868;47.360;18.984;2023-08-08T06:08:52;64758.41;;;30.58;37.29
43818;BME280;29868;47.360;18.984;2023-08-08T06:11:17;64683.69;;;29.89;36.86
43818;BME280;29868;47.360;18.984;2023-08-08T06:13:43;64603.34;;;29.14;38.78
43818;BME280;29868;47.360;18.984;2023-08-08T06:16:08;64773.56;;;30.69;35.87
43818;BME280;29868;47.360;18.984;2023-08-08T06:18:34;64655.28;;;29.63;36.70
43818;BME280;29868;47.360;18.984;2023-08-08T06:21:00;64612.81;;;29.27;37.51
43818;BME280;29868;47.360;18.984;2023-08-08T06:23:26;64473.09;;;28.02;39.40
43818;BME280;29868;47.360;18.984;2023-08-08T06:25:51;64438.44;;;27.71;40.01
43818;BME280;29868;47.360;18.984;2023-08-08T06:28:17;64500.69;;;28.24;39.78
43818;BME280;29868;47.360;18.984;2023-08-08T06:30:42;64276.59;;;26.23;43.43
43818;BME280;29868;47.360;18.984;2023-08-08T06:33:07;64337.66;;;26.82;42.70
43818;BME280;29868;47.360;18.984;2023-08-08T06:35:33;64145.91;;;25.07;46.21
43818;BME280;29868;47.360;18.984;2023-08-08T06:37:59;64128.75;;;24.96;46.84
43818;BME280;29868;47.360;18.984;2023-08-08T06:40:24;64163.31;;;25.28;46.60
43818;BME280;29868;47.360;18.984;2023-08-08T06:42:50;64148.97;;;25.12;46.23
43818;BME280;29868;47.360;18.984;2023-08-08T06:45:15;64101.38;;;24.69;47.79
43818;BME280;29868;47.360;18.984;2023-08-08T06:47:41;64118.16;;;24.82;47.68
43818;BME280;29868;47.360;18.984;2023-08-08T06:50:07;64034.03;;;24.09;52.20
43818;BME280;29868;47.360;18.984;2023-08-08T06:52:32;64092.16;;;24.59;49.82
43818;BME280;29868;47.360;18.984;2023-08-08T06:54:58;64058.94;;;24.31;49.96
43818;BME280;29868;47.360;18.984;2023-08-08T06:57:23;64145.53;;;25.09;48.18
43818;BME280;29868;47.360;18.984;2023-08-08T06:59:49;64091.00;;;24.58;50.02
43818;BME280;29868;47.360;18.984;2023-08-08T07:02:16;64066.84;;;24.38;49.24
43818;BME280;29868;47.360;18.984;2023-08-08T07:04:42;63932.81;;;23.17;51.72
43818;BME280;29868;47.360;18.984;2023-08-08T07:07:08;63906.25;;;22.93;55.79
43818;BME280;29868;47.360;18.984;2023-08-08T07:09:33;63951.88;;;23.39;56.02
43818;BME280;29868;47.360;18.984;2023-08-08T07:11:58;63837.53;;;22.33;60.52
43818;BME280;29868;47.360;18.984;2023-08-08T07:14:24;63826.81;;;22.24;62.16
43818;BME280;29868;47.360;18.984;2023-08-08T07:16:49;63845.78;;;22.39;60.15
43818;BME280;29868;47.360;18.984;2023-08-08T07:19:15;63803.22;;;21.98;62.41
43818;BME280;29868;47.360;18.984;2023-08-08T07:21:41;63839.22;;;22.35;62.78
43818;BME280;29868;47.360;18.984;2023-08-08T07:24:06;63815.84;;;22.11;63.27
43818;BME280;29868;47.360;18.984;2023-08-08T07:26:32;63763.53;;;21.67;69.47
43818;BME280;29868;47.360;18.984;2023-08-08T07:28:57;63831.31;;;22.28;63.95
43818;BME280;29868;47.360;18.984;2023-08-08T07:31:23;63804.56;;;22.01;63.05
43818;BME280;29868;47.360;18.984;2023-08-08T07:33:48;63739.66;;;21.43;62.04
43818;BME280;29868;47.360;18.984;2023-08-08T07:36:14;63725.53;;;21.30;63.89
43818;BME280;29868;47.360;18.984;2023-08-08T07:38:39;63753.75;;;21.55;61.95
43818;BME280;29868;47.360;18.984;2023-08-08T07:41:05;63716.69;;;21.24;63.22
43818;BME280;29868;47.360;18.984;2023-08-08T07:43:30;63778.03;;;21.77;65.85
43818;BME280;29868;47.360;18.984;2023-08-08T07:45:56;63744.38;;;21.49;61.76
43818;BME280;29868;47.360;18.984;2023-08-08T07:48:21;63731.97;;;21.38;62.99
43818;BME280;29868;47.360;18.984;2023-08-08T07:50:47;63772.94;;;21.73;62.28
43818;BME280;29868;47.360;18.984;2023-08-08T07:53:12;63781.78;;;21.78;65.59
43818;BME280;29868;47.360;18.984;2023-08-08T07:55:38;63734.56;;;21.38;63.17
43818;BME280;29868;47.360;18.984;2023-08-08T07:58:03;63721.78;;;21.29;64.09
43818;BME280;29868;47.360;18.984;2023-08-08T08:00:29;63699.59;;;21.06;63.57
43818;BME280;29868;47.360;18.984;2023-08-08T08:02:54;63699.94;;;21.04;64.57
43818;BME280;29868;47.360;18.984;2023-08-08T08:05:20;63674.78;;;20.84;68.75
43818;BME280;29868;47.360;18.984;2023-08-08T08:07:45;63729.69;;;21.36;67.46
43818;BME280;29868;47.360;18.984;2023-08-08T08:10:12;63758.28;;;21.59;67.13
43818;BME280;29868;47.360;18.984;2023-08-08T08:12:41;63797.78;;;21.95;63.90
43818;BME280;29868;47.360;18.984;2023-08-08T08:15:07;63816.06;;;22.14;62.25
43818;BME280;29868;47.360;18.984;2023-08-08T08:17:33;63846.00;;;22.41;58.50
43818;BME280;29868;47.360;18.984;2023-08-08T08:19:59;63905.13;;;22.92;61.67
43818;BME280;29868;47.360;18.984;2023-08-08T08:22:24;63934.88;;;23.17;55.89
43818;BME280;29868;47.360;18.984;2023-08-08T08:24:50;63964.28;;;23.43;53.97
43818;BME280;29868;47.360;18.984;2023-08-08T08:27:15;63951.50;;;23.41;53.94
43818;BME280;29868;47.360;18.984;2023-08-08T08:29:41;63899.09;;;22.89;52.26
43818;BME280;29868;47.360;18.984;2023-08-08T08:32:06;63953.72;;;23.36;54.43
43818;BME280;29868;47.360;18.984;2023-08-08T08:34:32;63975.22;;;23.55;55.19
43818;BME280;29868;47.360;18.984;2023-08-08T08:36:57;64015.94;;;23.92;54.09
43818;BME280;29868;47.360;18.984;2023-08-08T08:39:23;64040.44;;;24.17;50.79
43818;BME280;29868;47.360;18.984;2023-08-08T08:41:51;64022.16;;;23.98;51.08
43818;BME280;29868;47.360;18.984;2023-08-08T08:44:21;63936.41;;;23.23;51.20
43818;BME280;29868;47.360;18.984;2023-08-08T08:46:50;63929.06;;;23.16;53.00
43818;BME280;29868;47.360;18.984;2023-08-08T08:49:17;63971.44;;;23.54;51.84
43818;BME280;29868;47.360;18.984;2023-08-08T08:51:44;63976.16;;;23.54;52.70
43818;BME280;29868;47.360;18.984;2023-08-08T08:54:10;63951.84;;;23.32;48.98
43818;BME280;29868;47.360;18.984;2023-08-08T08:56:36;63920.03;;;23.08;52.04
43818;BME280;29868;47.360;18.984;2023-08-08T08:59:02;63957.69;;;23.40;52.13
43818;BME280;29868;47.360;18.984;2023-08-08T09:01:28;63927.53;;;23.10;52.40
43818;BME280;29868;47.360;18.984;2023-08-08T09:03:53;63900.00;;;22.88;51.58
43818;BME280;29868;47.360;18.984;2023-08-08T09:06:20;63934.31;;;23.16;52.18
43818;BME280;29868;47.360;18.984;2023-08-08T09:08:47;63912.28;;;22.96;52.92
43818;BME280;29868;47.360;18.984;2023-08-08T09:11:13;63916.44;;;23.02;51.17
43818;BME280;29868;47.360;18.984;2023-08-08T09:13:39;63907.38;;;22.94;50.63
43818;BME280;29868;47.360;18.984;2023-08-08T09:16:06;63894.72;;;22.80;53.28
43818;BME280;29868;47.360;18.984;2023-08-08T09:18:32;63886.25;;;22.73;50.19
43818;BME280;29868;47.360;18.984;2023-08-08T09:20:59;63956.34;;;23.36;50.04
43818;BME280;29868;47.360;18.984;2023-08-08T09:23:24;63965.97;;;23.45;50.95
43818;BME280;29868;47.360;18.984;2023-08-08T09:25:50;63942.78;;;23.24;52.35
43818;BME280;29868;47.360;18.984;2023-08-08T09:28:15;63894.38;;;22.82;52.09
43818;BME280;29868;47.360;18.984;2023-08-08T09:30:42;63902.84;;;22.90;55.20
43818;BME280;29868;47.360;18.984;2023-08-08T09:33:07;63942.22;;;23.23;55.88
43818;BME280;29868;47.360;18.984;2023-08-08T09:35:33;63980.88;;;23.61;53.02
43818;BME280;29868;47.360;18.984;2023-08-08T09:38:00;64005.56;;;23.81;51.44
43818;BME280;29868;47.360;18.984;2023-08-08T09:40:25;63935.28;;;23.22;48.29
43818;BME280;29868;47.360;18.984;2023-08-08T09:42:51;63982.00;;;23.62;50.50
43818;BME280;29868;47.360;18.984;2023-08-08T09:45:18;63987.66;;;23.67;50.15
43818;BME280;29868;47.360;18.984;2023-08-08T09:47:44;63888.53;;;22.75;50.66
43818;BME280;29868;47.360;18.984;2023-08-08T09:50:10;63874.59;;;22.65;51.22
43818;BME280;29868;47.360;18.984;2023-08-08T09:52:36;63899.09;;;22.89;51.92
43818;BME280;29868;47.360;18.984;2023-08-08T09:55:04;63983.69;;;23.63;52.24
43818;BME280;29868;47.360;18.984;2023-08-08T09:57:30;63949.78;;;23.33;49.45
43818;BME280;29868;47.360;18.984;2023-08-08T09:59:55;63983.50;;;23.61;52.59
43818;BME280;29868;47.360;18.984;2023-08-08T10:02:21;63949.59;;;23.30;52.28
43818;BME280;29868;47.360;18.984;2023-08-08T10:04:47;64008.41;;;23.83;54.61
43818;BME280;29868;47.360;18.984;2023-08-08T10:07:14;63984.06;;;23.61;52.72
43818;BME280;29868;47.360;18.984;2023-08-08T10:09:40;64013.31;;;23.92;50.50
43818;BME280;29868;47.360;18.984;2023-08-08T10:12:07;63973.72;;;23.57;50.35
43818;BME280;29868;47.360;18.984;2023-08-08T10:14:36;63988.81;;;23.68;50.00
43818;BME280;29868;47.360;18.984;2023-08-08T10:17:04;63985.41;;;23.65;51.01
43818;BME280;29868;47.360;18.984;2023-08-08T10:19:29;63942.78;;;23.24;51.26
43818;BME280;29868;47.360;18.984;2023-08-08T10:22:04;63977.28;;;23.55;49.98
43818;BME280;29868;47.360;18.984;2023-08-08T10:24:34;63961.28;;;23.45;52.49
43818;BME280;29868;47.360;18.984;2023-08-08T10:27:03;63997.47;;;23.78;51.21
43818;BME280;29868;47.360;18.984;2023-08-08T10:29:31;63962.97;;;23.47;49.61
43818;BME280;29868;47.360;18.984;2023-08-08T10:32:01;63969.00;;;23.50;52.95
43818;BME280;29868;47.360;18.984;2023-08-08T10:34:44;63976.53;;;23.59;52.36
43818;BME280;29868;47.360;18.984;2023-08-08T10:37:13;64012.19;;;23.91;53.52
43818;BME280;29868;47.360;18.984;2023-08-08T10:39:59;64025.38;;;23.98;51.63
43818;BME280;29868;47.360;18.984;2023-08-08T10:42:27;63945.63;;;23.26;49.74
43818;BME280;29868;47.360;18.984;2023-08-08T10:44:59;63939.03;;;23.23;52.00
43818;BME280;29868;47.360;18.984;2023-08-08T10:47:36;63934.31;;;23.16;51.40
43818;BME280;29868;47.360;18.984;2023-08-08T10:50:13;63902.63;;;22.88;50.20
43818;BME280;29868;47.360;18.984;2023-08-08T10:55:30;63899.88;;;22.92;52.97
43818;BME280;29868;47.360;18.984;2023-08-08T10:57:59;63980.09;;;23.58;50.96
43818;BME280;29868;47.360;18.984;2023-08-08T11:00:30;64012.94;;;23.87;50.52
43818;BME280;29868;47.360;18.984;2023-08-08T11:02:56;64049.09;;;24.20;48.71
43818;BME280;29868;47.360;18.984;2023-08-08T11:05:23;64081.59;;;24.51;51.18
43818;BME280;29868;47.360;18.984;2023-08-08T11:07:49;64070.06;;;24.39;48.41
43818;BME280;29868;47.360;18.984;2023-08-08T11:10:16;64095.94;;;24.67;47.22
43818;BME280;29868;47.360;18.984;2023-08-08T11:12:41;64028.03;;;24.06;50.15
43818;BME280;29868;47.360;18.984;2023-08-08T11:15:07;64042.53;;;24.16;48.45
43818;BME280;29868;47.360;18.984;2023-08-08T11:17:33;64039.13;;;24.13;48.34
43818;BME280;29868;47.360;18.984;2023-08-08T11:19:58;64036.09;;;24.08;50.00
43818;BME280;29868;47.360;18.984;2023-08-08T11:22:24;64020.84;;;23.94;45.44
43818;BME280;29868;47.360;18.984;2023-08-08T11:24:49;64057.03;;;24.27;48.13
43818;BME280;29868;47.360;18.984;2023-08-08T11:27:17;64058.16;;;24.28;46.70
43818;BME280;29868;47.360;18.984;2023-08-08T11:29:49;64062.31;;;24.34;48.03
43818;BME280;29868;47.360;18.984;2023-08-08T11:32:18;64046.47;;;24.20;46.41
43818;BME280;29868;47.360;18.984;2023-08-08T11:34:43;64022.31;;;23.93;47.55
43818;BME280;29868;47.360;18.984;2023-08-08T11:37:09;64046.28;;;24.17;49.63
43818;BME280;29868;47.360;18.984;2023-08-08T11:39:37;64011.22;;;23.86;47.29
43818;BME280;29868;47.360;18.984;2023-08-08T11:42:03;63978.59;;;23.59;47.61
43818;BME280;29868;47.360;18.984;2023-08-08T11:44:29;63954.47;;;23.32;49.65
43818;BME280;29868;47.360;18.984;2023-08-08T11:46:55;63968.06;;;23.51;50.18
43818;BME280;29868;47.360;18.984;2023-08-08T11:49:24;63945.63;;;23.26;47.72
43818;BME280;29868;47.360;18.984;2023-08-08T11:51:49;63895.69;;;22.86;50.68
43818;BME280;29868;47.360;18.984;2023-08-08T11:54:15;63909.66;;;22.96;53.35
43818;BME280;29868;47.360;18.984;2023-08-08T11:56:40;63955.22;;;23.35;52.42
43818;BME280;29868;47.360;18.984;2023-08-08T11:59:06;63976.91;;;23.57;52.08
43818;BME280;29868;47.360;18.984;2023-08-08T12:01:33;63999.34;;;23.75;51.15
43818;BME280;29868;47.360;18.984;2023-08-08T12:04:05;63974.28;;;23.57;52.15
43818;BME280;29868;47.360;18.984;2023-08-08T12:06:31;63976.34;;;23.57;49.38
43818;BME280;29868;47.360;18.984;2023-08-08T12:08:57;63952.41;;;23.33;51.84
43818;BME280;29868;47.360;18.984;2023-08-08T12:11:22;63986.88;;;23.64;53.62
43818;BME280;29868;47.360;18.984;2023-08-08T12:13:48;64029.50;;;24.04;49.43
43818;BME280;29868;47.360;18.984;2023-08-08T12:16:14;64057.22;;;24.30;50.17
43818;BME280;29868;47.360;18.984;2023-08-08T12:18:40;64081.56;;;24.44;48.46
43818;BME280;29868;47.360;18.984;2023-08-08T12:21:09;64050.25;;;24.21;47.38
43818;BME280;29868;47.360;18.984;2023-08-08T12:23:36;64028.94;;;24.04;46.83
43818;BME280;29868;47.360;18.984;2023-08-08T12:26:05;63999.34;;;23.75;46.37
43818;BME280;29868;47.360;18.984;2023-08-08T12:28:31;64019.13;;;23.93;49.44
43818;BME280;29868;47.360;18.984;2023-08-08T12:30:57;64006.13;;;23.81;47.27
43818;BME280;29868;47.360;18.984;2023-08-08T12:33:23;64015.75;;;23.90;50.22
43818;BME280;29868;47.360;18.984;2023-08-08T12:35:48;64074.03;;;24.42;50.38
43818;BME280;29868;47.360;18.984;2023-08-08T12:38:14;64039.50;;;24.11;46.36
43818;BME280;29868;47.360;18.984;2023-08-08T12:40:40;64098.34;;;24.64;46.72
43818;BME280;29868;47.360;18.984;2023-08-08T12:43:06;64114.22;;;24.79;42.09